createdAt,value
2023-05-16T00:00:58.422Z,100703.25
2023-05-16T00:03:26.082Z,100698.75
2023-05-16T00:05:53.206Z,100702.59
2023-05-16T00:08:19.773Z,100711.03
2023-05-16T00:10:46.272Z,100702.09
2023-05-16T00:13:13.558Z,100709.72
2023-05-16T00:15:40.162Z,100716.16
2023-05-16T00:18:07.137Z,100713.63
2023-05-16T00:20:34.681Z,100709.06
2023-05-16T00:23:01.489Z,100708.81
2023-05-16T00:25:28.719Z,100715.41
2023-05-16T00:27:55.307Z,100712.66
2023-05-16T00:30:22.703Z,100713.91
2023-05-16T00:32:51.739Z,100715.59
2023-05-16T00:35:18.283Z,100720.09
2023-05-16T00:37:44.848Z,100711.47
2023-05-16T00:40:11.639Z,100719.59
2023-05-16T00:42:39.136Z,100712.59
2023-05-16T00:45:06.915Z,100718.47
2023-05-16T00:47:33.693Z,100715.38
2023-05-16T00:50:00.723Z,100720.16
2023-05-16T00:52:28.416Z,100728.91
2023-05-16T00:54:55.045Z,100720.72
2023-05-16T00:57:21.700Z,100723.28
2023-05-16T00:59:48.637Z,100728.63
2023-05-16T01:02:17.376Z,100734.75
2023-05-16T01:04:46.101Z,100729.13
2023-05-16T01:07:12.708Z,100733.63
2023-05-16T01:09:39.424Z,100738.75
2023-05-16T01:12:21.369Z,100737.41
2023-05-16T01:15:08.489Z,100741.19
2023-05-16T01:17:44.172Z,100756.81
2023-05-16T01:20:28.209Z,100750.66
2023-05-16T01:23:13.613Z,100762.41
2023-05-16T01:25:58.116Z,100768.63
2023-05-16T01:28:26.025Z,100774.41
2023-05-16T01:30:52.655Z,100775.09
2023-05-16T01:33:19.266Z,100773.75
2023-05-16T01:36:21.151Z,100778.72
2023-05-16T01:39:11.519Z,100775.59
2023-05-16T01:41:43.966Z,100783.00
2023-05-16T01:44:30.409Z,100794.56
2023-05-16T01:47:01.597Z,100783.41
2023-05-16T01:49:36.114Z,100793.34
2023-05-16T01:52:09.876Z,100796.88
2023-05-16T01:54:42.887Z,100797.72
2023-05-16T01:57:10.383Z,100801.66
2023-05-16T01:59:38.505Z,100802.75
2023-05-16T02:02:05.465Z,100803.66
2023-05-16T02:04:31.999Z,100794.09
2023-05-16T02:07:00.529Z,100808.19
2023-05-16T02:09:27.440Z,100799.09
2023-05-16T02:11:54.313Z,100816.22
2023-05-16T02:14:20.900Z,100811.44
2023-05-16T02:16:48.492Z,100809.38
2023-05-16T02:19:16.807Z,100809.63
2023-05-16T02:21:43.449Z,100809.09
2023-05-16T02:24:11.360Z,100816.13
2023-05-16T02:26:37.951Z,100804.09
2023-05-16T02:29:05.924Z,100810.50
2023-05-16T02:31:34.842Z,100811.09
2023-05-16T02:34:02.134Z,100815.06
2023-05-16T02:36:29.055Z,100813.94
2023-05-16T02:38:55.767Z,100816.75
2023-05-16T02:41:22.962Z,100817.31
2023-05-16T02:43:49.720Z,100819.53
2023-05-16T02:46:30.808Z,100821.34
2023-05-16T02:48:57.715Z,100827.81
2023-05-16T02:51:26.375Z,100834.56
2023-05-16T02:53:54.158Z,100834.81
2023-05-16T02:56:21.877Z,100837.91
2023-05-16T02:58:49.728Z,100833.13
2023-05-16T03:01:17.252Z,100842.09
2023-05-16T03:03:43.948Z,100849.97
2023-05-16T03:06:10.775Z,100847.41
2023-05-16T03:08:37.387Z,100847.50
2023-05-16T03:11:04.211Z,100861.59
2023-05-16T03:13:30.862Z,100860.53
2023-05-16T03:15:58.941Z,100869.75
2023-05-16T03:18:25.616Z,100863.16
2023-05-16T03:20:55.073Z,100866.25
2023-05-16T03:23:24.077Z,100875.69
2023-05-16T03:25:50.918Z,100863.44
2023-05-16T03:28:20.741Z,100886.47
2023-05-16T03:30:47.343Z,100880.56
2023-05-16T03:33:14.059Z,100894.28
2023-05-16T03:35:40.935Z,100876.91
2023-05-16T03:38:07.654Z,100876.06
2023-05-16T03:40:34.269Z,100885.44
2023-05-16T03:43:00.885Z,100888.75
2023-05-16T03:45:27.593Z,100893.16
2023-05-16T03:47:54.538Z,100889.91
2023-05-16T03:50:21.161Z,100898.25
2023-05-16T03:52:47.894Z,100902.25
2023-05-16T03:55:15.197Z,100906.19
2023-05-16T03:57:42.712Z,100906.47
2023-05-16T04:00:12.536Z,100910.69
2023-05-16T04:02:43.732Z,100920.81
2023-05-16T04:05:11.553Z,100917.78
2023-05-16T04:07:38.309Z,100924.19
2023-05-16T04:10:05.888Z,100919.63
2023-05-16T04:12:32.663Z,100919.06
2023-05-16T04:14:59.431Z,100930.47
2023-05-16T04:17:26.028Z,100933.34
2023-05-16T04:19:52.687Z,100922.50
2023-05-16T04:22:23.280Z,100932.59
2023-05-16T04:24:50.115Z,100939.22
2023-05-16T04:27:16.657Z,100935.69
2023-05-16T04:29:44.289Z,100945.53
2023-05-16T04:32:11.055Z,100946.19
2023-05-16T04:34:39.642Z,100945.66
2023-05-16T04:37:08.421Z,100954.50
2023-05-16T04:39:36.535Z,100949.31
2023-05-16T04:42:04.185Z,100957.13
2023-05-16T04:44:30.998Z,100954.00
2023-05-16T04:46:57.828Z,100961.72
2023-05-16T04:49:24.459Z,100967.09
2023-05-16T04:51:51.176Z,100966.03
2023-05-16T04:54:17.733Z,100971.94
2023-05-16T04:56:44.259Z,100976.81
2023-05-16T04:59:10.901Z,100975.16
2023-05-16T05:01:37.431Z,100982.72
2023-05-16T05:04:04.188Z,100980.81
2023-05-16T05:06:31.390Z,100985.00
2023-05-16T05:08:58.136Z,100985.56
2023-05-16T05:11:24.674Z,100989.19
2023-05-16T05:13:52.944Z,100987.50
2023-05-16T05:16:19.878Z,100994.97
2023-05-16T05:18:46.636Z,100984.91
2023-05-16T05:21:13.334Z,100991.81
2023-05-16T05:23:40.190Z,100990.50
2023-05-16T05:26:06.818Z,100992.31
2023-05-16T05:28:33.635Z,100995.66
2023-05-16T05:31:00.148Z,101005.81
2023-05-16T05:33:30.335Z,101013.34
2023-05-16T05:35:57.518Z,101011.25
2023-05-16T05:38:24.051Z,101016.66
2023-05-16T05:40:50.952Z,101015.66
2023-05-16T05:43:17.502Z,101012.06
2023-05-16T05:45:44.736Z,101029.28
2023-05-16T05:48:12.573Z,101034.66
2023-05-16T05:50:39.415Z,101031.41
2023-05-16T05:53:05.983Z,101028.94
2023-05-16T05:55:32.547Z,101036.53
2023-05-16T05:57:59.173Z,101033.00
2023-05-16T06:00:25.922Z,101023.56
2023-05-16T06:02:52.738Z,101030.25
2023-05-16T06:05:19.775Z,101025.91
2023-05-16T06:07:46.330Z,101043.19
2023-05-16T06:10:12.910Z,101037.56
2023-05-16T06:12:39.408Z,101043.03
2023-05-16T06:15:06.473Z,101036.56
2023-05-16T06:17:33.003Z,101047.31
2023-05-16T06:19:59.622Z,101050.81
2023-05-16T06:22:26.191Z,101053.00
2023-05-16T06:24:52.983Z,101056.41
2023-05-16T06:27:19.494Z,101054.78
2023-05-16T06:29:46.132Z,101054.53
2023-05-16T06:32:13.477Z,101053.41
2023-05-16T06:34:40.399Z,101060.44
2023-05-16T06:37:06.925Z,101066.03
2023-05-16T06:39:33.684Z,101060.59
2023-05-16T06:42:00.788Z,101059.88
2023-05-16T06:44:31.900Z,101064.38
2023-05-16T06:46:58.770Z,101061.59
2023-05-16T06:49:25.760Z,101067.78
2023-05-16T06:51:52.298Z,101070.81
2023-05-16T06:54:18.905Z,101070.22
2023-05-16T06:56:45.754Z,101070.59
2023-05-16T06:59:12.464Z,101063.81
2023-05-16T07:01:39.257Z,101068.81
2023-05-16T07:04:06.390Z,101066.66
2023-05-16T07:06:33.471Z,101059.31
2023-05-16T07:09:00.557Z,101063.28
2023-05-16T07:11:27.123Z,101078.78
2023-05-16T07:13:53.744Z,101072.28
2023-05-16T07:16:20.554Z,101071.16
2023-05-16T07:18:47.346Z,101073.94
2023-05-16T07:21:14.094Z,101072.00
2023-05-16T07:23:41.402Z,101078.19
2023-05-16T07:26:08.093Z,101080.97
2023-05-16T07:28:34.983Z,101062.06
2023-05-16T07:31:01.688Z,101070.00
2023-05-16T07:33:28.402Z,101071.09
2023-05-16T07:36:07.949Z,101068.84
2023-05-16T07:38:42.053Z,101073.84
2023-05-16T07:41:08.657Z,101084.94
2023-05-16T07:43:35.492Z,101080.16
2023-05-16T07:46:03.062Z,101075.66
2023-05-16T07:48:29.863Z,101086.94
2023-05-16T07:50:56.598Z,101082.44
2023-05-16T07:53:23.391Z,101085.81
2023-05-16T07:55:53.273Z,101089.69
2023-05-16T07:58:20.378Z,101097.91
2023-05-16T08:00:47.041Z,101096.50
2023-05-16T08:03:13.989Z,101094.19
2023-05-16T08:05:40.773Z,101096.50
2023-05-16T08:08:07.424Z,101097.28
2023-05-16T08:10:34.105Z,101104.91
2023-05-16T08:13:00.791Z,101093.56
2023-05-16T08:15:28.715Z,101092.78
2023-05-16T08:17:59.329Z,101095.88
2023-05-16T08:20:26.388Z,101100.91
2023-05-16T08:22:53.182Z,101093.03
2023-05-16T08:25:20.451Z,101094.22
2023-05-16T08:27:51.022Z,101095.19
2023-05-16T08:30:17.793Z,101091.66
2023-05-16T08:32:44.810Z,101097.63
2023-05-16T08:35:12.889Z,101096.47
2023-05-16T08:37:39.696Z,101094.31
2023-05-16T08:40:09.464Z,101095.97
2023-05-16T08:42:37.445Z,101099.78
2023-05-16T08:45:05.758Z,101096.81
2023-05-16T08:47:33.217Z,101095.06
2023-05-16T08:50:02.787Z,101089.66
2023-05-16T08:52:31.738Z,101097.28
2023-05-16T08:55:10.691Z,101091.91
2023-05-16T08:57:38.557Z,101090.84
2023-05-16T09:00:12.398Z,101098.75
2023-05-16T09:02:41.738Z,101094.16
2023-05-16T09:05:15.885Z,101092.22
2023-05-16T09:07:44.663Z,101096.22
2023-05-16T09:10:12.658Z,101100.19
2023-05-16T09:12:42.316Z,101095.16
2023-05-16T09:15:12.459Z,101094.72
2023-05-16T09:17:44.363Z,101095.91
2023-05-16T09:20:18.599Z,101094.75
2023-05-16T09:22:57.726Z,101096.66
2023-05-16T09:27:58.824Z,101097.72
2023-05-16T09:30:34.260Z,101103.22
2023-05-16T09:33:01.883Z,101101.53
2023-05-16T09:37:59.823Z,101096.91
2023-05-16T09:40:27.880Z,101086.34
2023-05-16T09:43:07.189Z,101090.59
2023-05-16T09:45:39.686Z,101091.56
2023-05-16T09:48:12.946Z,101092.59
2023-05-16T09:50:40.271Z,101085.19
2023-05-16T09:53:06.973Z,101090.66
2023-05-16T09:55:34.071Z,101083.25
2023-05-16T09:58:01.136Z,101093.09
2023-05-16T10:00:32.997Z,101094.72
2023-05-16T10:03:04.769Z,101081.75
2023-05-16T10:05:33.788Z,101079.09
2023-05-16T10:08:02.784Z,101073.59
2023-05-16T10:10:30.079Z,101069.34
2023-05-16T10:13:01.495Z,101075.16
2023-05-16T10:15:30.229Z,101081.44
2023-05-16T10:18:00.753Z,101090.00
2023-05-16T10:20:28.129Z,101085.34
2023-05-16T10:22:57.041Z,101088.34
2023-05-16T10:25:45.410Z,101092.78
2023-05-16T10:28:13.949Z,101083.97
2023-05-16T10:30:44.148Z,101078.16
2023-05-16T10:33:15.984Z,101083.03
2023-05-16T10:35:44.284Z,101078.75
2023-05-16T10:38:12.724Z,101077.94
2023-05-16T10:40:40.664Z,101089.03
2023-05-16T10:43:09.573Z,101076.53
2023-05-16T10:45:42.335Z,101078.47
2023-05-16T10:48:12.709Z,101072.75
2023-05-16T10:50:44.607Z,101061.38
2023-05-16T10:53:13.061Z,101063.19
2023-05-16T10:55:40.914Z,101060.97
2023-05-16T10:58:11.555Z,101069.34
2023-05-16T11:00:41.274Z,101069.63
2023-05-16T11:03:27.431Z,101058.50
2023-05-16T11:05:59.927Z,101066.75
2023-05-16T11:08:27.918Z,101064.56
2023-05-16T11:11:33.274Z,101057.16
2023-05-16T11:14:04.952Z,101065.50
2023-05-16T11:16:35.210Z,101078.91
2023-05-16T11:19:06.874Z,101081.94
2023-05-16T11:22:11.816Z,101070.22
2023-05-16T11:24:40.666Z,101072.97
2023-05-16T11:27:11.527Z,101075.72
2023-05-16T11:29:39.392Z,101066.31
2023-05-16T11:32:07.284Z,101074.13
2023-05-16T11:34:40.726Z,101067.16
2023-05-16T11:37:11.614Z,101073.97
2023-05-16T11:39:39.793Z,101074.50
2023-05-16T11:42:07.772Z,101066.84
2023-05-16T11:44:34.990Z,101071.91
2023-05-16T11:47:04.534Z,101077.00
2023-05-16T11:49:31.727Z,101068.66
2023-05-16T11:51:58.462Z,101069.72
2023-05-16T11:54:26.328Z,101072.13
2023-05-16T11:56:53.709Z,101073.88
2023-05-16T11:59:20.913Z,101079.00
2023-05-16T12:01:49.176Z,101072.66
2023-05-16T12:04:17.054Z,101068.47
2023-05-16T12:06:44.940Z,101079.66
2023-05-16T12:09:14.348Z,101077.47
2023-05-16T12:11:44.113Z,101090.97
2023-05-16T12:14:13.823Z,101087.28
2023-05-16T12:16:46.315Z,101091.84
2023-05-16T12:19:14.184Z,101089.44
2023-05-16T12:21:40.900Z,101082.53
2023-05-16T12:24:11.571Z,101085.09
2023-05-16T12:26:40.619Z,101085.66
2023-05-16T12:29:08.097Z,101078.41
2023-05-16T12:31:41.645Z,101077.06
2023-05-16T12:34:16.283Z,101079.59
2023-05-16T12:36:43.389Z,101084.81
2023-05-16T12:39:12.900Z,101071.66
2023-05-16T12:41:43.251Z,101081.13
2023-05-16T12:44:17.692Z,101083.72
2023-05-16T12:46:50.242Z,101078.03
2023-05-16T12:49:21.569Z,101079.44
2023-05-16T12:51:50.006Z,101082.47
2023-05-16T12:54:16.840Z,101093.06
2023-05-16T12:56:44.087Z,101079.81
2023-05-16T12:59:12.291Z,101090.31
2023-05-16T13:01:40.525Z,101090.41
2023-05-16T13:04:08.355Z,101076.94
2023-05-16T13:06:55.635Z,101078.63
2023-05-16T13:09:23.334Z,101080.84
2023-05-16T13:11:50.711Z,101087.69
2023-05-16T13:14:17.907Z,101085.03
2023-05-16T13:16:44.914Z,101084.88
2023-05-16T13:19:11.799Z,101096.19
2023-05-16T13:21:38.471Z,101094.06
2023-05-16T13:24:05.528Z,101095.94
2023-05-16T13:26:32.089Z,101096.19
2023-05-16T13:28:58.671Z,101083.06
2023-05-16T13:31:25.413Z,101080.25
2023-05-16T13:33:52.146Z,101097.09
2023-05-16T13:36:18.721Z,101092.47
2023-05-16T13:38:45.354Z,101090.84
2023-05-16T13:41:11.971Z,101088.47
2023-05-16T13:43:38.590Z,101099.97
2023-05-16T13:46:05.401Z,101099.56
2023-05-16T13:48:32.463Z,101099.88
2023-05-16T13:50:59.052Z,101104.31
2023-05-16T13:53:26.212Z,101105.06
2023-05-16T13:55:52.870Z,101086.31
2023-05-16T13:58:19.688Z,101101.56
2023-05-16T14:00:47.687Z,101095.22
2023-05-16T14:03:14.579Z,101107.25
2023-05-16T14:05:41.242Z,101107.38
2023-05-16T14:08:08.198Z,101120.34
2023-05-16T14:10:34.749Z,101111.22
2023-05-16T14:13:01.514Z,101110.50
2023-05-16T14:15:28.190Z,101116.81
2023-05-16T14:17:55.236Z,101113.09
2023-05-16T14:20:21.883Z,101123.25
2023-05-16T14:22:48.519Z,101127.25
2023-05-16T14:25:15.361Z,101127.28
2023-05-16T14:27:42.034Z,101143.53
2023-05-16T14:30:09.445Z,101126.97
2023-05-16T14:32:36.431Z,101134.19
2023-05-16T14:35:05.302Z,101134.50
2023-05-16T14:37:32.096Z,101138.66
2023-05-16T14:39:59.645Z,101140.38
2023-05-16T14:42:26.551Z,101145.75
2023-05-16T14:44:53.227Z,101149.75
2023-05-16T14:47:19.977Z,101145.44
2023-05-16T14:49:46.702Z,101153.91
2023-05-16T14:52:14.442Z,101157.16
2023-05-16T14:54:41.138Z,101162.38
2023-05-16T14:57:08.105Z,101160.88
2023-05-16T14:59:34.780Z,101155.63
2023-05-16T15:02:01.753Z,101166.53
2023-05-16T15:04:28.885Z,101170.78
2023-05-16T15:06:55.859Z,101164.56
2023-05-16T15:09:22.614Z,101165.53
2023-05-16T15:11:49.280Z,101174.03
2023-05-16T15:14:16.175Z,101165.31
2023-05-16T15:16:43.285Z,101172.13
2023-05-16T15:19:10.028Z,101166.97
2023-05-16T15:21:36.879Z,101168.41
2023-05-16T15:24:03.561Z,101165.06
2023-05-16T15:26:31.022Z,101170.28
2023-05-16T15:28:58.359Z,101166.03
2023-05-16T15:31:25.505Z,101171.03
2023-05-16T15:33:52.330Z,101177.63
2023-05-16T15:36:19.072Z,101170.88
2023-05-16T15:38:47.512Z,101165.16
2023-05-16T15:41:27.118Z,101161.06
2023-05-16T15:43:59.256Z,101162.47
2023-05-16T15:46:26.417Z,101166.22
2023-05-16T15:48:53.574Z,101168.00
2023-05-16T15:51:21.053Z,101178.69
2023-05-16T15:53:48.280Z,101170.59
2023-05-16T15:56:14.988Z,101177.50
2023-05-16T15:58:41.926Z,101183.13
2023-05-16T16:01:08.680Z,101173.78
2023-05-16T16:03:35.653Z,101178.19
2023-05-16T16:06:02.597Z,101176.44
2023-05-16T16:08:29.360Z,101180.09
2023-05-16T16:10:55.989Z,101186.75
2023-05-16T16:13:24.147Z,101178.19
2023-05-16T16:15:50.915Z,101182.78
2023-05-16T16:18:17.626Z,101189.47
2023-05-16T16:20:44.310Z,101201.38
2023-05-16T16:23:11.409Z,101196.78
2023-05-16T16:25:38.083Z,101197.63
2023-05-16T16:28:05.580Z,101205.50
2023-05-16T16:30:32.207Z,101204.06
2023-05-16T16:32:58.788Z,101204.72
2023-05-16T16:35:26.503Z,101212.78
2023-05-16T16:38:05.714Z,101215.31
2023-05-16T16:40:33.217Z,101213.97
2023-05-16T16:42:59.930Z,101207.69
2023-05-16T16:45:26.963Z,101206.31
2023-05-16T16:47:53.759Z,101223.69
2023-05-16T16:50:20.601Z,101217.91
2023-05-16T16:52:47.683Z,101227.16
2023-05-16T16:55:14.947Z,101224.78
2023-05-16T16:57:42.495Z,101226.34
2023-05-16T17:00:11.358Z,101233.53
2023-05-16T17:02:38.295Z,101230.72
2023-05-16T17:05:06.465Z,101224.56
2023-05-16T17:07:33.266Z,101223.13
2023-05-16T17:10:01.036Z,101229.38
2023-05-16T17:12:28.725Z,101230.03
2023-05-16T17:14:57.086Z,101240.94
2023-05-16T17:17:25.117Z,101233.03
2023-05-16T17:19:52.191Z,101240.75
2023-05-16T17:22:19.148Z,101243.41
2023-05-16T17:24:45.792Z,101247.69
2023-05-16T17:27:13.425Z,101242.22
2023-05-16T17:29:40.005Z,101242.22
2023-05-16T17:32:06.731Z,101246.22
2023-05-16T17:34:33.523Z,101249.28
2023-05-16T17:37:00.283Z,101250.44
2023-05-16T17:39:26.933Z,101259.06
2023-05-16T17:41:59.180Z,101255.91
2023-05-16T17:44:26.023Z,101258.84
2023-05-16T17:46:53.609Z,101252.47
2023-05-16T17:49:21.468Z,101257.63
2023-05-16T17:51:54.129Z,101267.97
2023-05-16T17:54:22.267Z,101261.03
2023-05-16T17:56:50.751Z,101268.34
2023-05-16T17:59:17.694Z,101264.06
2023-05-16T18:01:44.360Z,101264.06
2023-05-16T18:04:11.640Z,101267.88
2023-05-16T18:06:38.823Z,101264.13
2023-05-16T18:09:07.317Z,101265.53
2023-05-16T18:11:34.771Z,101275.47
2023-05-16T18:14:02.007Z,101272.75
2023-05-16T18:16:30.574Z,101274.56
2023-05-16T18:18:58.133Z,101267.00
2023-05-16T18:21:25.263Z,101280.41
2023-05-16T18:23:52.058Z,101281.03
2023-05-16T18:26:19.321Z,101273.91
2023-05-16T18:28:46.521Z,101284.63
2023-05-16T18:31:13.249Z,101286.06
2023-05-16T18:33:40.065Z,101279.81
2023-05-16T18:36:07.056Z,101287.38
2023-05-16T18:38:34.006Z,101279.84
2023-05-16T18:41:01.294Z,101286.63
2023-05-16T18:43:28.029Z,101290.31
2023-05-16T18:45:54.574Z,101287.44
2023-05-16T18:48:21.402Z,101284.69
2023-05-16T18:50:48.042Z,101295.97
2023-05-16T18:53:14.668Z,101281.28
2023-05-16T18:55:41.169Z,101297.09
2023-05-16T18:58:07.905Z,101298.22
2023-05-16T19:00:34.470Z,101295.38
2023-05-16T19:03:01.228Z,101304.44
2023-05-16T19:05:28.408Z,101304.97
2023-05-16T19:07:55.385Z,101305.53
2023-05-16T19:10:22.062Z,101305.50
2023-05-16T19:12:49.333Z,101300.22
2023-05-16T19:15:16.115Z,101299.63
2023-05-16T19:17:43.077Z,101298.56
2023-05-16T19:20:10.863Z,101303.41
2023-05-16T19:22:37.682Z,101302.34
2023-05-16T19:25:05.441Z,101311.28
2023-05-16T19:27:32.206Z,101313.28
2023-05-16T19:29:58.827Z,101313.59
2023-05-16T19:32:25.683Z,101315.66
2023-05-16T19:34:52.603Z,101312.22
2023-05-16T19:37:19.353Z,101316.63
2023-05-16T19:39:45.942Z,101324.03
2023-05-16T19:42:12.569Z,101325.72
2023-05-16T19:44:39.087Z,101325.75
2023-05-16T19:47:05.922Z,101313.88
2023-05-16T19:49:32.525Z,101330.78
2023-05-16T19:51:59.243Z,101329.59
2023-05-16T19:54:26.179Z,101334.63
2023-05-16T19:56:52.875Z,101331.91
2023-05-16T19:59:20.469Z,101324.00
2023-05-16T20:01:47.109Z,101330.22
2023-05-16T20:04:13.862Z,101325.72
2023-05-16T20:06:41.132Z,101331.94
2023-05-16T20:09:07.847Z,101336.97
2023-05-16T20:11:34.568Z,101339.78
2023-05-16T20:14:01.128Z,101348.56
2023-05-16T20:16:27.855Z,101342.13
2023-05-16T20:18:54.521Z,101342.72
2023-05-16T20:21:21.177Z,101346.41
2023-05-16T20:23:47.770Z,101351.81
2023-05-16T20:26:15.098Z,101356.28
2023-05-16T20:28:42.013Z,101351.75
2023-05-16T20:31:08.734Z,101354.03
2023-05-16T20:33:35.594Z,101350.66
2023-05-16T20:36:02.273Z,101353.94
2023-05-16T20:38:28.894Z,101352.84
2023-05-16T20:40:55.728Z,101363.03
2023-05-16T20:43:22.609Z,101355.16
2023-05-16T20:45:50.003Z,101364.72
2023-05-16T20:48:16.822Z,101361.34
2023-05-16T20:50:43.530Z,101361.91
2023-05-16T20:53:10.120Z,101356.84
2023-05-16T20:55:36.720Z,101353.19
2023-05-16T20:58:03.373Z,101352.94
2023-05-16T21:00:29.967Z,101360.81
2023-05-16T21:02:56.546Z,101360.25
2023-05-16T21:05:25.662Z,101363.06
2023-05-16T21:07:53.237Z,101370.09
2023-05-16T21:10:20.166Z,101368.69
2023-05-16T21:12:46.789Z,101360.53
2023-05-16T21:15:13.391Z,101360.78
2023-05-16T21:17:41.332Z,101364.19
2023-05-16T21:20:08.602Z,101361.84
2023-05-16T21:22:35.493Z,101367.53
2023-05-16T21:25:02.126Z,101374.03
2023-05-16T21:27:28.694Z,101371.50
2023-05-16T21:29:55.310Z,101374.59
2023-05-16T21:32:21.930Z,101367.19
2023-05-16T21:34:48.939Z,101368.09
2023-05-16T21:37:16.757Z,101374.03
2023-05-16T21:39:43.536Z,101379.41
2023-05-16T21:42:10.237Z,101375.75
2023-05-16T21:44:36.876Z,101372.00
2023-05-16T21:47:03.723Z,101373.63
2023-05-16T21:49:30.738Z,101374.72
2023-05-16T21:51:57.370Z,101376.91
2023-05-16T21:54:23.942Z,101373.53
2023-05-16T21:56:50.467Z,101375.31
2023-05-16T21:59:17.178Z,101378.13
2023-05-16T22:01:43.678Z,101382.38
2023-05-16T22:04:10.586Z,101382.03
2023-05-16T22:06:37.318Z,101392.19
2023-05-16T22:09:04.021Z,101380.84
2023-05-16T22:11:30.601Z,101385.91
2023-05-16T22:13:57.299Z,101386.03
2023-05-16T22:16:23.842Z,101392.84
2023-05-16T22:18:50.678Z,101384.38
2023-05-16T22:21:17.372Z,101391.09
2023-05-16T22:23:44.116Z,101380.72
2023-05-16T22:26:10.768Z,101382.13
2023-05-16T22:28:37.392Z,101378.75
2023-05-16T22:31:03.935Z,101380.41
2023-05-16T22:33:30.726Z,101378.34
2023-05-16T22:35:57.385Z,101385.66
2023-05-16T22:38:23.938Z,101373.38
2023-05-16T22:40:50.540Z,101384.44
2023-05-16T22:43:17.114Z,101383.84
2023-05-16T22:45:43.828Z,101383.28
2023-05-16T22:48:10.591Z,101394.03
2023-05-16T22:50:37.170Z,101392.94
2023-05-16T22:53:03.723Z,101389.81
2023-05-16T22:55:30.626Z,101392.94
2023-05-16T22:57:59.684Z,101397.75
2023-05-16T23:00:26.266Z,101388.41
2023-05-16T23:02:53.000Z,101395.34
2023-05-16T23:05:19.742Z,101391.66
2023-05-16T23:07:46.452Z,101395.81
2023-05-16T23:10:12.985Z,101394.47
2023-05-16T23:12:39.656Z,101402.34
2023-05-16T23:15:09.832Z,101392.53
2023-05-16T23:17:40.072Z,101398.75
2023-05-16T23:20:07.502Z,101401.75
2023-05-16T23:22:34.129Z,101402.44
2023-05-16T23:25:00.785Z,101397.16
2023-05-16T23:27:27.371Z,101400.56
2023-05-16T23:29:54.014Z,101410.50
2023-05-16T23:32:20.772Z,101407.28
2023-05-16T23:34:47.412Z,101409.59
2023-05-16T23:37:14.452Z,101413.50
2023-05-16T23:39:41.244Z,101403.38
2023-05-16T23:42:07.960Z,101408.44
2023-05-16T23:44:34.618Z,101408.50
2023-05-16T23:47:01.160Z,101407.16
2023-05-16T23:49:27.780Z,101417.16
2023-05-16T23:51:57.946Z,101412.81
2023-05-16T23:54:27.719Z,101415.03
2023-05-16T23:56:54.265Z,101417.03
2023-05-16T23:59:20.935Z,101405.41
